Time;durP1;ratioP1;P1;durP2;ratioP2;P2;SDS_P1;SDS_P2;PMS_P1;PMS_P2;Temp;Humidity;BMP_temperature;BMP_pressure;BME280_temperature;BME280_humidity;BME280_pressure;Samples;Min_cycle;Max_cycle;Signal;HPM_P1;HPM_P2
2022/08/30 00:01:05;;;;;;;1.17;0.30;;;15.40;99.90;;;;;;5053199;28;20422;-79
2022/08/30 00:03:50;;;;;;;1.53;0.20;;;15.40;99.90;;;;;;5054434;28;20915;-79
2022/08/30 00:06:18;;;;;;;1.80;0.20;;;15.40;99.90;;;;;;5054200;28;20408;-81
2022/08/30 00:08:45;;;;;;;0.80;0.20;;;15.40;99.90;;;;;;5053923;28;20488;-81
2022/08/30 00:11:13;;;;;;;2.10;0.20;;;15.40;99.90;;;;;;5054427;28;20846;-78
2022/08/30 00:13:41;;;;;;;0.70;0.37;;;15.40;99.90;;;;;;5054177;28;20926;-78
2022/08/30 00:16:06;;;;;;;0.60;0.20;;;15.30;99.90;;;;;;5053951;28;20425;-78
2022/08/30 00:18:33;;;;;;;0.87;0.23;;;15.40;99.90;;;;;;5053969;28;21097;-78
2022/08/30 00:21:02;;;;;;;1.00;0.30;;;15.40;99.90;;;;;;5052785;28;20260;-79
2022/08/30 00:23:28;;;;;;;1.80;0.30;;;15.40;99.90;;;;;;5053582;28;20432;-81
2022/08/30 00:25:53;;;;;;;1.10;0.30;;;15.40;99.90;;;;;;5054041;28;20981;-78
2022/08/30 00:28:20;;;;;;;0.97;0.20;;;15.40;99.90;;;;;;5053902;28;20734;-78
2022/08/30 00:30:46;;;;;;;3.20;0.50;;;15.40;99.90;;;;;;5053930;28;20229;-81
2022/08/30 00:33:13;;;;;;;0.50;0.20;;;15.40;99.90;;;;;;5053743;28;20424;-81
2022/08/30 00:35:39;;;;;;;0.60;0.20;;;15.40;99.90;;;;;;5040906;28;20437;-80
2022/08/30 00:38:06;;;;;;;1.43;0.30;;;15.50;99.90;;;;;;5045122;28;21077;-79
2022/08/30 00:40:36;;;;;;;0.97;0.30;;;15.50;99.90;;;;;;5049724;28;20183;-78
2022/08/30 00:43:05;;;;;;;1.13;0.20;;;15.50;99.90;;;;;;5053630;28;20559;-79
2022/08/30 00:45:33;;;;;;;0.40;0.20;;;15.50;99.90;;;;;;5053469;28;20805;-79
2022/08/30 00:48:00;;;;;;;0.53;0.20;;;15.60;99.90;;;;;;5053540;28;20424;-80
2022/08/30 00:50:34;;;;;;;1.63;0.30;;;15.60;99.90;;;;;;5033538;28;20516;-79
2022/08/30 00:53:03;;;;;;;0.60;0.20;;;15.60;99.90;;;;;;5033018;28;20458;-80
2022/08/30 00:55:29;;;;;;;0.60;0.50;;;15.50;99.90;;;;;;5035204;28;20486;-82
2022/08/30 00:57:58;;;;;;;0.87;0.27;;;15.60;99.90;;;;;;5053282;28;20469;-78
2022/08/30 01:00:25;;;;;;;0.67;0.30;;;15.60;99.90;;;;;;5052305;28;20180;-81
2022/08/30 01:02:50;;;;;;;1.37;0.33;;;15.60;99.90;;;;;;5053246;28;20421;-81
2022/08/30 01:05:17;;;;;;;1.67;0.20;;;15.60;99.90;;;;;;5053232;28;20884;-80
2022/08/30 01:07:42;;;;;;;0.90;0.20;;;15.60;99.90;;;;;;5052953;28;20179;-80
2022/08/30 01:10:11;;;;;;;1.10;0.50;;;15.70;99.90;;;;;;5053121;28;20538;-79
2022/08/30 01:12:38;;;;;;;2.60;0.57;;;15.70;99.90;;;;;;5053136;28;20268;-78
2022/08/30 01:15:06;;;;;;;2.53;0.40;;;15.70;99.90;;;;;;5053146;28;20501;-79
2022/08/30 01:17:33;;;;;;;1.40;0.57;;;15.70;99.90;;;;;;5052873;28;20521;-78
2022/08/30 01:20:07;;;;;;;0.60;0.20;;;15.70;99.90;;;;;;5034998;28;20476;-82
2022/08/30 01:22:48;;;;;;;1.07;0.30;;;15.70;99.90;;;;;;5052485;28;20915;-81
2022/08/30 01:25:17;;;;;;;0.50;0.20;;;15.70;99.90;;;;;;5052911;28;20513;-81
2022/08/30 01:28:10;;;;;;;1.13;0.20;;;15.70;99.90;;;;;;5053145;28;20433;-78
2022/08/30 01:30:38;;;;;;;1.33;0.20;;;15.70;99.90;;;;;;5030891;28;20411;-81
2022/08/30 01:33:05;;;;;;;0.97;0.40;;;15.70;99.90;;;;;;5052163;28;20419;-81
2022/08/30 01:36:00;;;;;;;0.80;0.20;;;15.70;99.90;;;;;;5053129;28;20442;-80
2022/08/30 01:38:46;;;;;;;0.60;0.20;;;15.70;99.90;;;;;;5052187;28;20511;-78
2022/08/30 01:41:16;;;;;;;0.83;0.20;;;15.70;99.90;;;;;;5052696;28;20423;-82
2022/08/30 01:43:43;;;;;;;1.73;0.40;;;15.60;99.90;;;;;;5051752;28;20994;-79
2022/08/30 01:46:10;;;;;;;1.00;0.40;;;15.70;99.90;;;;;;5052928;28;20629;-78
2022/08/30 01:48:45;;;;;;;0.93;0.30;;;15.70;99.90;;;;;;5052993;28;20421;-80
2022/08/30 01:51:12;;;;;;;1.30;0.23;;;15.70;99.90;;;;;;5052612;28;20408;-78
2022/08/30 01:53:39;;;;;;;1.07;0.20;;;15.60;99.90;;;;;;5052726;28;20525;-79
2022/08/30 01:56:06;;;;;;;1.20;0.20;;;15.60;99.90;;;;;;5052883;28;20775;-78
2022/08/30 01:58:33;;;;;;;1.27;0.30;;;15.60;99.90;;;;;;5052744;28;20474;-79
2022/08/30 02:00:58;;;;;;;0.50;0.40;;;15.60;99.90;;;;;;5052766;28;20549;-78
2022/08/30 02:03:29;;;;;;;0.80;0.20;;;15.60;99.90;;;;;;5052781;28;20479;-82
2022/08/30 02:05:54;;;;;;;0.70;0.30;;;15.50;99.90;;;;;;5052836;28;20170;-77
2022/08/30 02:08:20;;;;;;;1.30;0.20;;;15.50;99.90;;;;;;5052129;28;20513;-79
2022/08/30 02:10:45;;;;;;;2.30;0.30;;;15.50;99.90;;;;;;5052706;28;20179;-78
2022/08/30 02:13:11;;;;;;;1.17;0.20;;;15.50;99.90;;;;;;5056693;28;20258;-78
2022/08/30 02:15:36;;;;;;;1.13;0.50;;;15.50;99.90;;;;;;5056812;28;20176;-78
2022/08/30 02:18:02;;;;;;;2.53;0.40;;;15.50;99.90;;;;;;5056639;28;20257;-77
2022/08/30 02:20:27;;;;;;;0.73;0.37;;;15.50;99.90;;;;;;5056860;28;20179;-79
2022/08/30 02:22:53;;;;;;;1.33;0.50;;;15.50;99.90;;;;;;5055085;28;20191;-79
2022/08/30 02:25:21;;;;;;;0.50;0.20;;;15.50;99.90;;;;;;5056647;28;20187;-80
2022/08/30 02:27:47;;;;;;;0.93;0.27;;;15.50;99.90;;;;;;5056394;28;20169;-80
2022/08/30 02:30:13;;;;;;;0.77;0.23;;;15.50;99.90;;;;;;5056548;28;20437;-81
2022/08/30 02:32:40;;;;;;;0.53;0.20;;;15.50;99.90;;;;;;5055304;28;20942;-80
2022/08/30 02:35:06;;;;;;;0.73;0.30;;;15.50;99.90;;;;;;5055194;28;20196;-80
2022/08/30 02:37:31;;;;;;;0.90;0.43;;;15.50;99.90;;;;;;5050223;28;21027;-79
2022/08/30 02:39:56;;;;;;;0.73;0.30;;;15.50;99.90;;;;;;5056265;28;20203;-80
2022/08/30 02:42:22;;;;;;;0.80;0.30;;;15.50;99.90;;;;;;5056159;28;20658;-81
2022/08/30 02:44:47;;;;;;;1.33;0.30;;;15.50;99.90;;;;;;5056140;28;20198;-80
2022/08/30 02:47:13;;;;;;;0.73;0.20;;;15.50;99.90;;;;;;5056218;28;20258;-79
2022/08/30 02:49:38;;;;;;;0.90;0.20;;;15.60;99.90;;;;;;5056132;28;20202;-80
2022/08/30 02:52:04;;;;;;;0.83;0.20;;;15.60;99.90;;;;;;5055558;28;20172;-79
2022/08/30 02:54:32;;;;;;;1.33;0.50;;;15.60;99.90;;;;;;5039399;28;20190;-79
2022/08/30 02:56:58;;;;;;;0.50;0.20;;;15.60;99.90;;;;;;5055856;28;20488;-78
2022/08/30 02:59:23;;;;;;;1.80;0.30;;;15.50;99.90;;;;;;5055884;28;20409;-81
2022/08/30 03:01:49;;;;;;;0.73;0.50;;;15.50;99.90;;;;;;5055887;28;20488;-79
2022/08/30 03:04:14;;;;;;;0.90;0.20;;;15.50;99.90;;;;;;5037970;28;20186;-83
2022/08/30 03:06:39;;;;;;;0.90;0.30;;;15.50;99.90;;;;;;5055352;28;20265;-80
2022/08/30 03:09:05;;;;;;;2.57;0.40;;;15.50;99.90;;;;;;5055667;28;20176;-79
2022/08/30 03:11:30;;;;;;;1.30;0.20;;;15.50;99.90;;;;;;5055733;28;20175;-81
2022/08/30 03:13:56;;;;;;;0.60;0.23;;;15.50;99.90;;;;;;5055662;28;20174;-81
2022/08/30 03:16:22;;;;;;;0.67;0.40;;;15.50;99.90;;;;;;5055600;28;20207;-81
2022/08/30 03:18:47;;;;;;;0.90;0.20;;;15.50;99.90;;;;;;5055595;28;20230;-79
2022/08/30 03:21:15;;;;;;;0.93;0.20;;;15.50;99.90;;;;;;5055247;28;20176;-81
2022/08/30 03:23:44;;;;;;;0.47;0.30;;;15.50;99.90;;;;;;5054394;28;20536;-80
2022/08/30 03:26:13;;;;;;;1.00;0.40;;;15.50;99.90;;;;;;5055429;28;20517;-80
2022/08/30 03:28:40;;;;;;;1.70;0.20;;;15.60;99.90;;;;;;5055443;28;20775;-80
2022/08/30 03:31:06;;;;;;;0.93;0.20;;;15.50;99.90;;;;;;5055392;28;20422;-80
2022/08/30 03:33:31;;;;;;;1.07;0.20;;;15.50;99.90;;;;;;5055335;28;20410;-80
2022/08/30 03:35:57;;;;;;;0.40;0.27;;;15.50;99.90;;;;;;5055015;28;20467;-80
2022/08/30 03:38:23;;;;;;;0.50;0.20;;;15.40;99.90;;;;;;5054773;28;20715;-81
2022/08/30 03:40:48;;;;;;;0.80;0.20;;;15.50;99.90;;;;;;5055155;28;20173;-80
2022/08/30 03:43:14;;;;;;;0.50;0.20;;;15.50;99.90;;;;;;5055154;28;20672;-79
2022/08/30 03:45:39;;;;;;;0.53;0.10;;;15.50;99.90;;;;;;5055117;28;20636;-79
2022/08/30 03:48:05;;;;;;;4.43;0.40;;;15.50;99.90;;;;;;5020800;28;20176;-80
2022/08/30 03:50:31;;;;;;;0.83;0.30;;;15.50;99.90;;;;;;5054912;28;20301;-79
2022/08/30 03:53:00;;;;;;;0.80;0.40;;;15.50;99.90;;;;;;5054390;28;20702;-81
2022/08/30 03:55:27;;;;;;;2.37;0.50;;;15.50;99.90;;;;;;5055030;28;20446;-81
2022/08/30 03:57:52;;;;;;;1.63;0.30;;;15.50;99.90;;;;;;5054812;28;20469;-80
2022/08/30 04:00:18;;;;;;;0.70;0.20;;;15.50;99.90;;;;;;5054813;28;20934;-80
2022/08/30 04:02:44;;;;;;;0.97;0.20;;;15.40;99.90;;;;;;5036908;28;20561;-80
2022/08/30 04:05:11;;;;;;;0.57;0.30;;;15.40;99.90;;;;;;5054713;28;20504;-82
2022/08/30 04:07:37;;;;;;;0.87;0.27;;;15.40;99.90;;;;;;5054475;28;20535;-80
2022/08/30 04:10:07;;;;;;;0.60;0.20;;;15.40;99.90;;;;;;5054752;28;20413;-80
2022/08/30 04:12:33;;;;;;;1.80;0.20;;;15.40;99.90;;;;;;5054611;28;20784;-81
2022/08/30 04:14:58;;;;;;;1.93;0.30;;;15.40;99.90;;;;;;5054497;28;20408;-81
2022/08/30 04:17:24;;;;;;;1.73;0.20;;;15.40;99.90;;;;;;5036579;28;20214;-80
2022/08/30 04:19:49;;;;;;;1.37;0.20;;;15.40;99.90;;;;;;5054442;28;20262;-81
2022/08/30 04:22:15;;;;;;;0.60;0.20;;;15.30;99.90;;;;;;5054060;28;20255;-80
2022/08/30 04:24:40;;;;;;;0.70;0.20;;;15.30;99.90;;;;;;5054392;28;20639;-80
2022/08/30 04:27:12;;;;;;;0.77;0.20;;;15.30;99.90;;;;;;5054368;28;20172;-79
2022/08/30 04:29:38;;;;;;;0.60;0.30;;;15.30;99.90;;;;;;5054302;28;20530;-80
2022/08/30 04:32:04;;;;;;;0.67;0.20;;;15.30;99.90;;;;;;5054208;28;20422;-80
2022/08/30 04:34:29;;;;;;;1.77;0.30;;;15.30;99.90;;;;;;5052715;28;20187;-79
2022/08/30 04:36:55;;;;;;;0.90;0.20;;;15.30;99.90;;;;;;5053268;28;20292;-79
2022/08/30 04:39:20;;;;;;;0.87;0.30;;;15.30;99.90;;;;;;5053975;28;20269;-80
2022/08/30 04:41:47;;;;;;;0.50;0.20;;;15.40;99.90;;;;;;5053909;28;20213;-80
2022/08/30 04:44:13;;;;;;;0.57;0.30;;;15.40;99.90;;;;;;5053983;28;20433;-79
2022/08/30 04:46:39;;;;;;;1.47;0.30;;;15.40;99.90;;;;;;5053804;28;20174;-81
2022/08/30 04:49:07;;;;;;;0.73;0.30;;;15.40;99.90;;;;;;5033920;28;20488;-79
2022/08/30 04:51:33;;;;;;;0.77;0.73;;;15.40;99.90;;;;;;5032360;28;20168;-79
2022/08/30 04:53:58;;;;;;;1.80;0.33;;;15.40;99.90;;;;;;5033607;28;21013;-79
2022/08/30 04:56:24;;;;;;;0.80;0.30;;;15.40;99.90;;;;;;5052167;28;20265;-80
2022/08/30 04:58:53;;;;;;;1.40;0.40;;;15.40;99.90;;;;;;5053644;28;20173;-82
2022/08/30 05:01:22;;;;;;;1.70;0.20;;;15.40;99.90;;;;;;5053636;28;20199;-80
2022/08/30 05:03:49;;;;;;;1.80;0.20;;;15.50;99.90;;;;;;5053461;28;20795;-80
2022/08/30 05:06:23;;;;;;;0.60;0.20;;;15.40;99.90;;;;;;5038445;28;20424;-80
2022/08/30 05:08:48;;;;;;;1.20;0.20;;;15.50;99.90;;;;;;5053465;28;20418;-81
2022/08/30 05:11:15;;;;;;;1.67;0.30;;;15.50;99.90;;;;;;5053433;28;20424;-79
2022/08/30 05:13:42;;;;;;;0.37;0.20;;;15.50;99.90;;;;;;5035547;28;20172;-79
2022/08/30 05:16:08;;;;;;;1.37;0.20;;;15.60;99.90;;;;;;5053355;28;20416;-80
2022/08/30 05:18:35;;;;;;;2.43;0.40;;;15.60;99.90;;;;;;5053226;28;20478;-82
2022/08/30 05:21:10;;;;;;;0.93;0.47;;;15.60;99.90;;;;;;5052840;28;20490;-80
2022/08/30 05:23:37;;;;;;;2.73;0.20;;;15.70;99.90;;;;;;5053240;28;20880;-80
2022/08/30 05:26:12;;;;;;;0.40;0.20;;;15.70;99.90;;;;;;5053177;28;20772;-80
2022/08/30 05:28:37;;;;;;;1.03;0.40;;;15.70;99.90;;;;;;5035342;28;20423;-79
2022/08/30 05:31:34;;;;;;;0.40;0.10;;;15.80;99.90;;;;;;5053047;28;20413;-80
2022/08/30 05:34:00;;;;;;;0.97;0.20;;;15.80;99.90;;;;;;5042131;28;20327;-80
2022/08/30 05:36:29;;;;;;;0.70;0.20;;;15.80;99.90;;;;;;5052596;28;20500;-81
2022/08/30 05:38:55;;;;;;;1.43;0.53;;;15.90;99.90;;;;;;5052704;28;20445;-79
2022/08/30 05:41:22;;;;;;;0.90;0.20;;;16.00;99.90;;;;;;5052933;28;20422;-80
2022/08/30 05:43:51;;;;;;;0.80;0.40;;;16.00;99.90;;;;;;5052939;28;20425;-79
2022/08/30 05:46:18;;;;;;;1.20;0.30;;;16.10;99.90;;;;;;5051321;28;20468;-79
2022/08/30 05:48:44;;;;;;;1.83;0.30;;;16.10;99.90;;;;;;5052483;28;20418;-79
2022/08/30 05:51:13;;;;;;;1.83;0.30;;;16.10;99.90;;;;;;5052241;28;20415;-80
2022/08/30 05:53:39;;;;;;;0.97;0.20;;;16.10;99.90;;;;;;5052464;28;20463;-79
2022/08/30 05:56:08;;;;;;;0.90;0.30;;;16.20;99.90;;;;;;5052852;28;20443;-78
2022/08/30 05:58:34;;;;;;;0.87;0.30;;;16.20;99.90;;;;;;5052708;28;21017;-81
2022/08/30 06:01:03;;;;;;;1.17;0.20;;;16.30;99.90;;;;;;5052957;28;20717;-81
2022/08/30 06:03:31;;;;;;;0.80;0.47;;;16.30;99.90;;;;;;5047358;28;20455;-85
2022/08/30 06:05:58;;;;;;;2.80;0.23;;;16.40;99.90;;;;;;5042691;28;20508;-83
2022/08/30 06:08:25;;;;;;;1.97;0.60;;;16.40;99.90;;;;;;5032775;28;20422;-82
2022/08/30 06:10:51;;;;;;;0.77;0.20;;;16.50;99.90;;;;;;5032743;28;20427;-81
2022/08/30 06:13:16;;;;;;;0.80;0.23;;;16.60;99.90;;;;;;5032692;28;20498;-81
2022/08/30 06:15:43;;;;;;;0.53;0.20;;;16.60;99.90;;;;;;5040201;28;20452;-81
2022/08/30 06:18:11;;;;;;;0.60;0.40;;;16.70;99.90;;;;;;5052616;28;20568;-81
2022/08/30 06:20:43;;;;;;;1.73;0.30;;;16.80;99.90;;;;;;5045761;28;20423;-87
2022/08/30 06:23:09;;;;;;;1.30;0.20;;;16.90;99.90;;;;;;5032656;28;20823;-82
2022/08/30 06:25:37;;;;;;;0.70;0.20;;;16.90;99.90;;;;;;5031528;28;20484;-82
2022/08/30 06:28:04;;;;;;;1.00;0.30;;;17.00;99.90;;;;;;5032645;28;20416;-82
2022/08/30 06:30:30;;;;;;;1.73;0.20;;;17.30;99.90;;;;;;5032618;28;20425;-82
2022/08/30 06:32:55;;;;;;;2.57;0.47;;;17.40;99.90;;;;;;5031914;28;20497;-81
2022/08/30 06:35:21;;;;;;;1.17;0.20;;;17.50;99.90;;;;;;5045451;28;20655;-81
2022/08/30 06:37:46;;;;;;;1.57;0.23;;;17.60;99.90;;;;;;5051778;28;20291;-81
2022/08/30 06:40:13;;;;;;;0.60;0.20;;;17.50;99.90;;;;;;5052040;28;20252;-81
2022/08/30 06:42:38;;;;;;;3.70;0.30;;;17.50;99.90;;;;;;5050243;28;20189;-80
2022/08/30 06:45:07;;;;;;;2.03;0.27;;;17.50;99.90;;;;;;5051369;28;20404;-81
2022/08/30 06:47:32;;;;;;;0.93;0.27;;;17.50;99.90;;;;;;5034288;28;20180;-81
2022/08/30 06:49:57;;;;;;;0.67;0.33;;;17.60;99.90;;;;;;5052082;28;20766;-81
2022/08/30 06:52:24;;;;;;;1.10;0.43;;;17.60;99.90;;;;;;5051440;28;20232;-82
2022/08/30 06:54:49;;;;;;;1.23;0.20;;;17.70;99.90;;;;;;5052237;28;20173;-81
2022/08/30 06:57:15;;;;;;;1.60;0.20;;;17.60;99.90;;;;;;5040009;28;20216;-83
2022/08/30 06:59:40;;;;;;;2.10;0.57;;;17.70;99.90;;;;;;5054555;28;20185;-78
2022/08/30 07:02:07;;;;;;;1.30;0.47;;;17.80;99.90;;;;;;5055338;28;20686;-79
2022/08/30 07:04:33;;;;;;;0.77;0.40;;;17.90;99.90;;;;;;5055295;28;20200;-79
2022/08/30 07:06:59;;;;;;;1.53;0.40;;;18.10;99.90;;;;;;5037213;28;20471;-79
2022/08/30 07:09:24;;;;;;;1.37;0.20;;;18.10;99.90;;;;;;5054546;28;20420;-80
2022/08/30 07:11:51;;;;;;;2.97;0.23;;;18.20;99.90;;;;;;5043297;28;20420;-79
2022/08/30 07:14:17;;;;;;;1.70;0.27;;;18.10;99.90;;;;;;5036735;28;20184;-78
2022/08/30 07:16:46;;;;;;;0.67;0.20;;;18.10;99.90;;;;;;5032409;28;20486;-78
2022/08/30 07:19:12;;;;;;;1.07;0.33;;;18.10;99.90;;;;;;5034328;28;20421;-78
2022/08/30 07:21:42;;;;;;;1.30;0.50;;;18.00;99.90;;;;;;5034002;28;21168;-78
2022/08/30 07:24:09;;;;;;;0.83;0.20;;;18.00;99.90;;;;;;5034768;28;20318;-77
2022/08/30 07:26:38;;;;;;;0.53;0.20;;;18.00;99.90;;;;;;5035056;28;20409;-78
2022/08/30 07:29:04;;;;;;;1.10;0.20;;;18.10;99.90;;;;;;5035351;28;20787;-78
2022/08/30 07:31:31;;;;;;;0.97;0.20;;;18.20;99.90;;;;;;5035387;28;20441;-78
2022/08/30 07:33:57;;;;;;;0.50;0.20;;;18.30;99.90;;;;;;5038485;28;20505;-78
2022/08/30 07:36:26;;;;;;;0.53;0.20;;;18.40;99.90;;;;;;5035552;28;20508;-78
2022/08/30 07:38:54;;;;;;;1.10;0.33;;;18.50;99.90;;;;;;5036255;28;20326;-78
2022/08/30 07:41:34;;;;;;;0.80;0.30;;;18.70;99.90;;;;;;5035864;28;20421;-78
2022/08/30 07:43:59;;;;;;;1.10;0.37;;;18.90;99.90;;;;;;5036747;28;20425;-79
2022/08/30 07:46:26;;;;;;;0.93;0.27;;;19.20;97.60;;;;;;5035379;28;20845;-78
2022/08/30 07:48:53;;;;;;;0.40;0.20;;;19.40;99.90;;;;;;5035266;28;20175;-81
2022/08/30 07:51:21;;;;;;;0.47;0.30;;;19.60;4.40;;;;;;5034752;28;20408;-79
2022/08/30 07:53:47;;;;;;;0.40;0.20;;;19.90;12.80;;;;;;5034970;28;20832;-79
2022/08/30 07:56:13;;;;;;;0.50;0.20;;;19.80;1.00;;;;;;5034943;28;20417;-79
2022/08/30 07:58:39;;;;;;;0.77;0.10;;;19.80;1.00;;;;;;5034878;28;20237;-78
2022/08/30 08:01:06;;;;;;;0.60;0.20;;;19.80;1.00;;;;;;5034902;28;20760;-78
2022/08/30 08:03:32;;;;;;;1.23;0.20;;;19.80;1.00;;;;;;5034954;28;20176;-78
2022/08/30 08:06:01;;;;;;;0.70;0.20;;;20.10;1.00;;;;;;5016852;28;20492;-78
2022/08/30 08:08:26;;;;;;;3.50;0.40;;;20.40;1.00;;;;;;5034519;28;20521;-79
2022/08/30 08:10:52;;;;;;;1.20;0.27;;;20.80;99.90;;;;;;5034406;28;20431;-79
2022/08/30 08:13:17;;;;;;;0.60;0.23;;;21.10;99.90;;;;;;5034707;28;20276;-76
2022/08/30 08:15:43;;;;;;;0.80;0.20;;;21.30;1.00;;;;;;5034736;28;20169;-84
2022/08/30 08:18:08;;;;;;;0.83;0.20;;;21.60;1.00;;;;;;5034519;28;20248;-86
2022/08/30 08:20:35;;;;;;;0.60;0.23;;;22.10;1.00;;;;;;5034609;28;20173;-86
2022/08/30 08:23:01;;;;;;;0.53;0.20;;;22.80;1.00;;;;;;5034849;28;20167;-76
2022/08/30 08:25:27;;;;;;;0.50;0.20;;;23.00;1.00;;;;;;5034444;28;20505;-76
2022/08/30 08:27:53;;;;;;;0.80;0.20;;;22.90;1.00;;;;;;5034366;28;20499;-80
2022/08/30 08:30:20;;;;;;;0.50;0.20;;;22.40;1.00;;;;;;5034371;28;20500;-79
2022/08/30 08:32:47;;;;;;;0.97;0.20;;;21.80;1.00;;;;;;5034098;28;20260;-78
2022/08/30 08:35:13;;;;;;;0.73;0.20;;;21.40;99.90;;;;;;5033856;28;20409;-78
2022/08/30 08:37:45;;;;;;;0.40;0.30;;;21.60;99.90;;;;;;5034243;28;20468;-79
2022/08/30 08:40:17;;;;;;;1.13;0.20;;;22.00;1.00;;;;;;5034179;28;20406;-79
2022/08/30 08:43:09;;;;;;;0.70;0.30;;;22.00;5.70;;;;;;5034134;28;20421;-78
2022/08/30 08:45:54;;;;;;;0.80;0.20;;;21.50;1.00;;;;;;5034299;28;20449;-76
2022/08/30 08:48:40;;;;;;;0.30;0.20;;;21.30;99.90;;;;;;5034136;28;20413;-76
2022/08/30 08:53:59;;;;;;;2.93;0.20;;;21.30;99.90;;;;;;5033892;28;20479;-77
2022/08/30 08:56:25;;;;;;;0.50;0.20;;;21.40;99.90;;;;;;5033868;28;20409;-76
2022/08/30 08:58:54;;;;;;;0.40;0.20;;;21.40;1.00;;;;;;5033743;28;20424;-78
2022/08/30 09:01:22;;;;;;;0.40;0.20;;;21.40;1.00;;;;;;5033649;28;20416;-76
2022/08/30 09:03:51;;;;;;;0.57;0.20;;;21.30;1.00;;;;;;5033664;28;20484;-76
2022/08/30 09:06:37;;;;;;;0.40;0.23;;;21.10;99.90;;;;;;5033379;28;20412;-76
2022/08/30 09:09:02;;;;;;;0.70;0.20;;;21.10;92.50;;;;;;5033529;28;20435;-76
2022/08/30 09:11:32;;;;;;;1.67;0.30;;;21.00;16.20;;;;;;5033577;28;20417;-78
2022/08/30 09:13:57;;;;;;;1.30;0.20;;;21.00;1.00;;;;;;5033401;28;20230;-77
2022/08/30 09:16:44;;;;;;;1.30;0.20;;;20.90;99.90;;;;;;5033622;28;20416;-76
2022/08/30 09:19:10;;;;;;;0.90;0.20;;;20.60;99.90;;;;;;5033467;28;20200;-76
2022/08/30 09:21:36;;;;;;;1.17;0.20;;;20.40;99.90;;;;;;5032294;28;20412;-79
2022/08/30 09:24:03;;;;;;;0.90;0.20;;;20.30;1.00;;;;;;5033360;28;20176;-78
2022/08/30 09:26:32;;;;;;;0.40;0.20;;;20.30;99.90;;;;;;5033306;28;20922;-78
2022/08/30 09:29:03;;;;;;;0.70;0.20;;;20.20;1.00;;;;;;5016145;28;20416;-78
2022/08/30 09:31:32;;;;;;;0.67;0.20;;;20.30;99.90;;;;;;5033232;28;20823;-79
2022/08/30 09:34:06;;;;;;;1.17;0.20;;;20.60;1.00;;;;;;5033098;28;20469;-78
2022/08/30 09:36:45;;;;;;;0.50;0.20;;;20.30;99.90;;;;;;5015199;28;20432;-78
2022/08/30 09:39:17;;;;;;;0.50;0.20;;;20.20;1.00;;;;;;5033053;28;20424;-79
2022/08/30 09:41:47;;;;;;;1.00;0.20;;;20.10;1.00;;;;;;5033030;28;20420;-78
2022/08/30 09:44:19;;;;;;;0.60;0.20;;;20.10;1.00;;;;;;5032944;28;20428;-78
2022/08/30 09:46:53;;;;;;;0.40;0.20;;;20.00;1.00;;;;;;5033070;28;20915;-78
2022/08/30 09:49:30;;;;;;;1.47;0.20;;;20.10;1.00;;;;;;5033000;28;20434;-78
2022/08/30 09:52:13;;;;;;;4.33;0.47;;;20.10;1.00;;;;;;5032619;28;20408;-79
2022/08/30 09:55:06;;;;;;;0.40;0.20;;;20.00;1.00;;;;;;5033072;28;20894;-79
2022/08/30 09:57:46;;;;;;;1.13;0.20;;;20.10;1.00;;;;;;5032781;28;20512;-79
2022/08/30 10:00:20;;;;;;;0.87;0.50;;;19.90;1.00;;;;;;5032949;28;20412;-79
2022/08/30 10:03:16;;;;;;;0.50;0.20;;;19.90;1.00;;;;;;5032784;28;20769;-79
2022/08/30 10:05:54;;;;;;;0.40;0.23;;;19.70;1.00;;;;;;5031305;28;20420;-84
2022/08/30 10:08:43;;;;;;;0.90;0.10;;;19.80;1.00;;;;;;5015706;28;20490;-84
2022/08/30 10:11:32;;;;;;;0.40;0.20;;;19.80;1.00;;;;;;5027765;28;20513;-84
2022/08/30 10:14:36;;;;;;;0.50;0.30;;;19.80;1.00;;;;;;5035680;28;20487;-89
2022/08/30 10:17:12;;;;;;;1.30;0.20;;;19.80;99.90;;;;;;5054122;28;20511;-86
2022/08/30 10:19:50;;;;;;;0.60;0.20;;;19.90;99.90;;;;;;5054419;28;20422;-88
2022/08/30 10:22:35;;;;;;;0.50;0.10;;;19.90;99.90;;;;;;5037590;28;20422;-86
2022/08/30 10:25:12;;;;;;;2.07;0.20;;;19.90;1.00;;;;;;5035405;28;20435;-87
2022/08/30 10:27:54;;;;;;;0.83;0.20;;;20.10;99.90;;;;;;5052963;28;20540;-85
2022/08/30 10:30:21;;;;;;;0.80;0.40;;;20.20;1.00;;;;;;5022227;28;20794;-81
2022/08/30 10:33:03;;;;;;;0.70;0.20;;;20.20;99.90;;;;;;5034459;28;20411;-81
2022/08/30 10:35:34;;;;;;;0.40;0.20;;;20.30;99.90;;;;;;5036147;28;20420;-81
2022/08/30 10:38:04;;;;;;;0.47;0.20;;;20.30;1.00;;;;;;5018640;28;20533;-82
2022/08/30 10:43:32;;;;;;;0.97;0.30;;;20.20;1.00;;;;;;5036816;28;20784;-81
2022/08/30 10:46:02;;;;;;;0.50;0.30;;;20.40;1.00;;;;;;5036308;28;20421;-81
2022/08/30 10:48:42;;;;;;;0.53;0.20;;;20.60;41.50;;;;;;5037179;28;20789;-90
2022/08/30 10:51:13;;;;;;;0.63;0.20;;;20.60;99.90;;;;;;5038565;28;20427;-94
2022/08/30 10:53:49;;;;;;;1.20;0.20;;;20.70;99.90;;;;;;5035827;28;20493;-84
2022/08/30 10:56:20;;;;;;;1.03;0.20;;;20.50;99.90;;;;;;5036486;28;21187;-82
2022/08/30 10:58:46;;;;;;;1.17;0.20;;;20.50;99.90;;;;;;5037398;28;21016;-90
2022/08/30 11:01:31;;;;;;;0.90;0.20;;;20.30;1.00;;;;;;5036584;28;20440;-86
2022/08/30 11:04:30;;;;;;;0.67;0.30;;;20.50;1.00;;;;;;5036575;28;20416;-81
2022/08/30 11:07:20;;;;;;;0.50;0.23;;;20.50;99.90;;;;;;5035453;28;20423;-82
2022/08/30 11:10:13;;;;;;;0.60;0.20;;;20.70;99.90;;;;;;5018628;28;20455;-82
2022/08/30 11:13:11;;;;;;;0.70;0.20;;;21.90;1.00;;;;;;5034979;28;20412;-83
2022/08/30 11:15:52;;;;;;;0.73;0.30;;;21.80;1.00;;;;;;5017934;28;20427;-82
2022/08/30 11:18:19;;;;;;;1.17;0.20;;;22.40;99.90;;;;;;5035721;28;20464;-82
2022/08/30 11:20:46;;;;;;;0.70;0.20;;;24.60;99.90;;;;;;5035967;28;20773;-85
2022/08/30 11:23:17;;;;;;;0.50;0.20;;;25.70;99.90;;;;;;5018466;28;20512;-93
2022/08/30 11:25:49;;;;;;;0.83;0.30;;;26.50;99.90;;;;;;5040324;28;20442;-90
2022/08/30 11:28:33;;;;;;;0.57;0.20;;;26.90;99.90;;;;;;5054078;28;20427;-88
2022/08/30 11:31:07;;;;;;;0.50;0.20;;;28.20;99.90;;;;;;5036926;28;20435;-87
2022/08/30 11:33:42;;;;;;;0.70;0.20;;;26.90;57.60;;;;;;5054256;28;20412;-85
2022/08/30 11:36:11;;;;;;;0.63;0.20;;;26.00;57.80;;;;;;5054052;28;20420;-84
2022/08/30 11:38:36;;;;;;;1.75;0.20;;;25.90;88.70;;;;;;5052414;28;20514;-85
2022/08/30 11:41:11;;;;;;;0.60;0.30;;;26.80;75.30;;;;;;5054193;28;20521;-87
2022/08/30 11:43:38;;;;;;;0.77;0.40;;;27.70;84.50;;;;;;5053419;28;20639;-88
2022/08/30 11:46:26;;;;;;;1.10;0.20;;;28.50;80.90;;;;;;5054358;28;20499;-86
2022/08/30 11:49:12;;;;;;;0.80;0.20;;;28.40;34.30;;;;;;5038523;28;20474;-88
2022/08/30 11:52:15;;;;;;;0.80;0.20;;;28.10;32.00;;;;;;5055450;28;20506;-91
2022/08/30 11:54:46;;;;;;;0.50;0.20;;;28.60;37.30;;;;;;5035132;28;20440;-86
2022/08/30 11:57:37;;;;;;;0.60;0.20;;;28.30;20.20;;;;;;5034028;28;20456;-87
2022/08/30 12:00:21;;;;;;;0.50;0.20;;;28.20;15.90;;;;;;5034977;28;20834;-91
2022/08/30 12:03:04;;;;;;;0.67;0.20;;;28.50;23.90;;;;;;5034982;28;20479;-91
2022/08/30 12:05:39;;;;;;;0.60;0.20;;;28.70;28.20;;;;;;5034916;28;20492;-91
2022/08/30 12:08:43;;;;;;;1.03;0.20;;;28.10;26.40;;;;;;5035344;28;20421;-89
2022/08/30 12:11:11;;;;;;;1.27;0.20;;;26.20;30.20;;;;;;5034978;28;20762;-85
2022/08/30 12:13:43;;;;;;;1.23;0.23;;;25.70;40.20;;;;;;5034305;28;20437;-84
2022/08/30 12:16:12;;;;;;;0.90;0.30;;;24.80;56.50;;;;;;5034221;28;20416;-84
2022/08/30 12:18:59;;;;;;;0.60;0.20;;;24.50;99.10;;;;;;5034406;28;20477;-87
2022/08/30 12:21:28;;;;;;;1.07;0.20;;;24.30;99.90;;;;;;5033824;28;20642;-85
2022/08/30 12:24:02;;;;;;;1.97;0.20;;;24.00;99.90;;;;;;5034491;28;20890;-85
2022/08/30 12:26:34;;;;;;;0.67;0.20;;;23.70;99.90;;;;;;5033175;28;20466;-83
2022/08/30 12:29:22;;;;;;;0.50;0.20;;;23.50;99.90;;;;;;5034394;28;20409;-86
2022/08/30 12:31:58;;;;;;;0.60;0.20;;;25.60;99.90;;;;;;5035851;28;20416;-84
2022/08/30 12:34:36;;;;;;;0.53;0.20;;;26.70;76.30;;;;;;5034405;28;20417;-95
2022/08/30 12:37:09;;;;;;;0.63;0.30;;;26.20;53.80;;;;;;5034604;28;20459;-85
2022/08/30 12:39:38;;;;;;;0.60;0.30;;;24.70;66.90;;;;;;5034303;28;20432;-86
2022/08/30 12:42:18;;;;;;;1.27;0.20;;;23.70;98.30;;;;;;5034137;28;20400;-82
2022/08/30 12:44:45;;;;;;;1.27;0.30;;;23.60;99.90;;;;;;5034133;28;20409;-85
2022/08/30 12:47:12;;;;;;;0.80;0.30;;;23.40;99.90;;;;;;5034031;28;20546;-87
2022/08/30 12:49:39;;;;;;;0.93;0.37;;;23.30;99.90;;;;;;5033401;28;20502;-83
2022/08/30 12:52:36;;;;;;;0.53;0.20;;;23.00;99.90;;;;;;5032509;28;20416;-83
2022/08/30 12:55:18;;;;;;;1.10;0.40;;;22.90;99.90;;;;;;4996898;28;20438;-87
2022/08/30 12:57:56;;;;;;;1.63;0.27;;;23.10;99.90;;;;;;5013940;28;20954;-82
2022/08/30 13:00:43;;;;;;;1.60;0.33;;;23.30;99.90;;;;;;5012724;28;20426;-87
2022/08/30 13:03:36;;;;;;;0.80;0.27;;;23.50;99.90;;;;;;5013631;28;20409;-85
2022/08/30 13:06:06;;;;;;;2.03;0.20;;;23.70;99.90;;;;;;5012006;28;20426;-86
2022/08/30 13:08:43;;;;;;;0.90;0.20;;;25.10;99.90;;;;;;5013588;28;20930;-84
2022/08/30 13:11:19;;;;;;;1.60;0.20;;;25.50;76.00;;;;;;5012689;28;20425;-85